Time,TemperatureF,DewpointF,PressureIn,WindDirection,WindDirectionDegrees,WindSpeedMPH,WindSpeedGustMPH,Humidity,HourlyPrecipIn,Conditions,Clouds,dailyrainin,SolarRadiationWatts/m^2,SoftwareType,DateUTC
2013-07-25 00:02:00,73.0,71.0,29.94,WNW,297,0.0,2.0,93,0.00,,,0.00,0.000000,,2013-07-25 04:02:00,
2013-07-25 00:12:00,73.0,71.0,29.94,WNW,297,0.0,2.0,93,0.00,,,0.00,0.000000,,2013-07-25 04:12:00,
2013-07-25 00:32:00,73.0,71.0,29.94,WNW,297,0.0,1.0,92,0.00,,,0.00,0.000000,,2013-07-25 04:32:00,
2013-07-25 00:43:00,73.0,71.0,29.94,WNW,297,0.0,1.0,92,0.00,,,0.00,0.000000,,2013-07-25 04:43:00,
2013-07-25 00:53:00,72.0,70.0,29.95,WNW,297,0.0,1.0,92,0.00,,,0.00,0.000000,,2013-07-25 04:53:00,
2013-07-25 01:02:00,72.0,70.0,29.95,WNW,297,0.0,1.0,92,0.00,,,0.00,0.000000,,2013-07-25 05:02:00,
2013-07-25 01:12:00,72.0,70.0,29.95,WNW,297,0.0,1.0,92,0.00,,,0.00,0.000000,,2013-07-25 05:12:00,
2013-07-25 01:32:00,72.0,70.0,29.95,WNW,297,0.0,1.0,92,0.00,,,0.00,0.000000,,2013-07-25 05:32:00,
2013-07-25 01:43:00,72.0,70.0,29.95,WNW,297,0.0,1.0,92,0.00,,,0.00,0.000000,,2013-07-25 05:43:00,
2013-07-25 01:52:00,72.0,70.0,29.95,WNW,297,0.0,1.0,94,0.00,,,0.00,0.000000,,2013-07-25 05:52:00,
2013-07-25 02:02:00,72.0,70.0,29.95,WNW,297,0.0,1.0,94,0.00,,,0.00,0.000000,,2013-07-25 06:02:00,
2013-07-25 02:12:00,72.0,70.0,29.95,WNW,297,0.0,1.0,94,0.00,,,0.00,0.000000,,2013-07-25 06:12:00,
2013-07-25 02:22:00,72.0,70.0,29.95,WNW,297,0.0,1.0,95,0.00,,,0.00,0.000000,,2013-07-25 06:22:00,
2013-07-25 02:32:00,72.0,70.0,29.95,WNW,297,0.0,1.0,95,0.00,,,0.00,0.000000,,2013-07-25 06:32:00,
2013-07-25 02:42:00,72.0,70.0,29.95,WNW,297,0.0,1.0,95,0.00,,,0.00,0.000000,,2013-07-25 06:42:00,
2013-07-25 02:52:00,71.0,69.0,29.94,WNW,297,0.0,1.0,95,0.00,,,0.00,0.000000,,2013-07-25 06:52:00,
2013-07-25 03:02:00,71.0,69.0,29.94,WNW,297,0.0,1.0,95,0.00,,,0.00,0.000000,,2013-07-25 07:02:00,
2013-07-25 03:12:00,71.0,69.0,29.94,WNW,297,0.0,1.0,95,0.00,,,0.00,0.000000,,2013-07-25 07:12:00,
2013-07-25 03:22:00,71.0,70.0,29.93,WNW,297,0.0,1.0,96,0.00,,,0.00,0.000000,,2013-07-25 07:22:00,
2013-07-25 03:33:00,71.0,70.0,29.93,WNW,297,0.0,1.0,96,0.00,,,0.00,0.000000,,2013-07-25 07:33:00,
2013-07-25 03:43:00,71.0,70.0,29.93,WNW,297,0.0,1.0,96,0.00,,,0.00,0.000000,,2013-07-25 07:43:00,
2013-07-25 03:53:00,70.0,69.0,29.92,WNW,297,0.0,1.0,96,0.00,,,0.00,0.000000,,2013-07-25 07:53:00,
2013-07-25 04:02:00,70.0,69.0,29.92,WNW,297,0.0,1.0,96,0.00,,,0.00,0.000000,,2013-07-25 08:02:00,
2013-07-25 04:12:00,70.0,69.0,29.92,WNW,297,0.0,1.0,96,0.00,,,0.00,0.000000,,2013-07-25 08:12:00,
2013-07-25 04:22:00,70.0,69.0,29.93,WNW,297,0.0,1.0,96,0.00,,,0.00,0.000000,,2013-07-25 08:22:00,
2013-07-25 04:32:00,70.0,69.0,29.93,WNW,297,0.0,1.0,96,0.00,,,0.00,0.000000,,2013-07-25 08:32:00,
2013-07-25 04:44:00,70.0,69.0,29.93,WNW,297,0.0,1.0,96,0.00,,,0.00,0.000000,,2013-07-25 08:44:00,
2013-07-25 04:52:00,70.0,69.0,29.93,WNW,297,0.0,0.0,96,0.00,,,0.00,0.000000,,2013-07-25 08:52:00,
2013-07-25 05:02:00,70.0,69.0,29.93,WNW,297,0.0,0.0,96,0.00,,,0.00,0.000000,,2013-07-25 09:02:00,
2013-07-25 05:12:00,70.0,69.0,29.93,WNW,297,0.0,0.0,96,0.00,,,0.00,0.000000,,2013-07-25 09:12:00,
2013-07-25 05:22:00,69.0,68.0,29.94,WNW,297,0.0,1.0,96,0.00,,,0.00,0.000000,,2013-07-25 09:22:00,
2013-07-25 05:33:00,69.0,68.0,29.94,WNW,297,0.0,1.0,96,0.00,,,0.00,0.000000,,2013-07-25 09:33:00,
2013-07-25 05:43:00,69.0,68.0,29.94,WNW,297,0.0,1.0,96,0.00,,,0.00,0.000000,,2013-07-25 09:43:00,
2013-07-25 05:53:00,69.0,68.0,29.94,WNW,297,0.0,1.0,96,0.00,,,0.00,0.000000,,2013-07-25 09:53:00,
2013-07-25 06:02:00,69.0,68.0,29.94,WNW,297,0.0,1.0,96,0.00,,,0.00,0.000000,,2013-07-25 10:02:00,
2013-07-25 06:32:00,69.0,68.0,29.95,WNW,297,0.0,0.0,96,0.00,,,0.00,0.000000,,2013-07-25 10:32:00,
2013-07-25 06:43:00,69.0,68.0,29.95,WNW,297,0.0,0.0,96,0.00,,,0.00,0.000000,,2013-07-25 10:43:00,
2013-07-25 06:53:00,68.0,67.0,29.96,WNW,297,0.0,0.0,96,0.00,,,0.00,0.000000,,2013-07-25 10:53:00,
2013-07-25 07:02:00,68.0,67.0,29.96,WNW,297,0.0,0.0,96,0.00,,,0.00,0.000000,,2013-07-25 11:02:00,
2013-07-25 07:12:00,68.0,67.0,29.96,WNW,297,0.0,0.0,96,0.00,,,0.00,0.000000,,2013-07-25 11:12:00,
2013-07-25 07:32:00,68.0,67.0,29.97,WNW,297,0.0,0.0,96,0.00,,,0.00,11.000000,,2013-07-25 11:32:00,
2013-07-25 07:43:00,68.0,67.0,29.97,WNW,297,0.0,0.0,96,0.00,,,0.00,11.000000,,2013-07-25 11:43:00,
2013-07-25 07:52:00,68.0,67.0,29.98,WNW,297,0.0,0.0,97,0.00,,,0.00,26.000000,,2013-07-25 11:52:00,
2013-07-25 08:03:00,68.0,67.0,29.98,WNW,297,0.0,0.0,97,0.00,,,0.00,26.000000,,2013-07-25 12:03:00,
2013-07-25 08:12:00,68.0,67.0,29.98,WNW,297,0.0,0.0,97,0.00,,,0.00,26.000000,,2013-07-25 12:12:00,
2013-07-25 08:32:00,68.0,67.0,29.98,WNW,297,0.0,1.0,97,0.00,,,0.00,40.000000,,2013-07-25 12:32:00,
2013-07-25 08:45:00,68.0,67.0,29.98,WNW,297,0.0,1.0,97,0.00,,,0.00,40.000000,,2013-07-25 12:45:00,
2013-07-25 08:53:00,69.0,68.0,29.98,WNW,297,0.0,1.0,96,0.00,,,0.00,53.000000,,2013-07-25 12:53:00,
2013-07-25 09:12:00,69.0,68.0,29.98,WNW,297,0.0,1.0,96,0.00,,,0.00,53.000000,,2013-07-25 13:12:00,
2013-07-25 09:33:00,71.0,69.0,30.00,WNW,297,0.0,1.0,93,0.00,,,0.00,67.000000,,2013-07-25 13:33:00,
2013-07-25 09:43:00,71.0,69.0,30.00,WNW,297,0.0,1.0,93,0.00,,,0.00,67.000000,,2013-07-25 13:43:00,
2013-07-25 09:53:00,73.0,70.0,30.01,WNW,297,0.0,1.0,89,0.00,,,0.00,483.000000,,2013-07-25 13:53:00,
2013-07-25 10:02:00,73.0,70.0,30.01,WNW,297,0.0,1.0,89,0.00,,,0.00,483.000000,,2013-07-25 14:02:00,
2013-07-25 10:12:00,73.0,70.0,30.01,WNW,297,0.0,1.0,89,0.00,,,0.00,483.000000,,2013-07-25 14:12:00,
2013-07-25 10:33:00,76.0,70.0,30.01,WNW,297,1.0,2.0,83,0.00,,,0.00,594.000000,,2013-07-25 14:33:00,
2013-07-25 10:43:00,76.0,70.0,30.01,WNW,297,1.0,2.0,83,0.00,,,0.00,594.000000,,2013-07-25 14:43:00,
2013-07-25 10:53:00,78.0,70.0,30.01,WNW,286,1.0,4.0,77,0.00,,,0.00,680.000000,,2013-07-25 14:53:00,
2013-07-25 11:02:00,78.0,70.0,30.01,WNW,286,1.0,4.0,77,0.00,,,0.00,680.000000,,2013-07-25 15:02:00,
2013-07-25 11:12:00,78.0,70.0,30.01,WNW,286,1.0,4.0,77,0.00,,,0.00,680.000000,,2013-07-25 15:12:00,
2013-07-25 11:32:00,81.0,72.0,30.01,WNW,296,0.0,1.0,73,0.00,,,0.00,766.000000,,2013-07-25 15:32:00,
2013-07-25 11:44:00,81.0,72.0,30.01,WNW,296,0.0,1.0,73,0.00,,,0.00,766.000000,,2013-07-25 15:44:00,
2013-07-25 11:53:00,84.0,70.0,30.01,WNW,296,0.0,1.0,63,0.00,,,0.00,847.000000,,2013-07-25 15:53:00,
2013-07-25 12:02:00,84.0,70.0,30.01,WNW,296,0.0,1.0,63,0.00,,,0.00,847.000000,,2013-07-25 16:02:00,
2013-07-25 12:23:00,87.0,71.0,30.02,WNW,296,0.0,1.0,60,0.00,,,0.00,963.000000,,2013-07-25 16:23:00,
2013-07-25 12:45:00,87.0,71.0,30.02,WNW,296,0.0,1.0,60,0.00,,,0.00,963.000000,,2013-07-25 16:45:00,
2013-07-25 12:53:00,87.0,71.0,30.02,NW,306,0.0,1.0,60,0.00,,,0.00,1014.000000,,2013-07-25 16:53:00,
2013-07-25 13:03:00,87.0,71.0,30.02,NW,306,0.0,1.0,60,0.00,,,0.00,1014.000000,,2013-07-25 17:03:00,
2013-07-25 13:12:00,87.0,71.0,30.02,NW,306,0.0,1.0,60,0.00,,,0.00,1014.000000,,2013-07-25 17:12:00,
2013-07-25 13:32:00,90.0,73.0,30.02,ENE,75,0.0,2.0,58,0.00,,,0.00,1028.000000,,2013-07-25 17:32:00,
2013-07-25 13:33:00,91.0,71.0,30.02,ENE,76,0.0,1.0,52,0.00,,,0.00,1025.000000,,2013-07-25 17:33:00,
2013-07-25 13:43:00,90.0,73.0,30.02,ENE,75,0.0,2.0,58,0.00,,,0.00,1028.000000,,2013-07-25 17:43:00,
2013-07-25 13:53:00,91.0,71.0,30.02,ENE,76,0.0,1.0,52,0.00,,,0.00,1025.000000,,2013-07-25 17:53:00,
2013-07-25 14:02:00,91.0,71.0,30.02,ENE,76,0.0,1.0,52,0.00,,,0.00,1025.000000,,2013-07-25 18:02:00,
2013-07-25 14:12:00,91.0,71.0,30.02,ENE,76,0.0,1.0,52,0.00,,,0.00,1025.000000,,2013-07-25 18:12:00,
2013-07-25 14:22:00,91.0,71.0,30.02,ENE,76,0.0,1.0,52,0.00,,,0.00,1025.000000,,2013-07-25 18:22:00,
2013-07-25 14:52:00,87.0,71.0,30.02,ENE,76,0.0,1.0,59,0.00,,,0.00,1013.000000,,2013-07-25 18:52:00,
2013-07-25 15:03:00,87.0,71.0,30.02,ENE,76,0.0,1.0,59,0.00,,,0.00,1013.000000,,2013-07-25 19:03:00,
2013-07-25 15:12:00,87.0,71.0,30.02,ENE,76,0.0,1.0,59,0.00,,,0.00,1013.000000,,2013-07-25 19:12:00,
2013-07-25 15:22:00,91.0,69.0,30.02,ENE,75,0.0,2.0,49,0.00,,,0.00,190.000000,,2013-07-25 19:22:00,
2013-07-25 15:33:00,91.0,69.0,30.02,ENE,75,0.0,2.0,49,0.00,,,0.00,190.000000,,2013-07-25 19:33:00,
2013-07-25 15:43:00,91.0,69.0,30.02,ENE,75,0.0,2.0,49,0.00,,,0.00,190.000000,,2013-07-25 19:43:00,
2013-07-25 15:53:00,90.0,71.0,30.02,ENE,75,0.0,1.0,53,0.00,,,0.00,972.000000,,2013-07-25 19:53:00,
2013-07-25 16:02:00,90.0,71.0,30.02,ENE,75,0.0,1.0,53,0.00,,,0.00,972.000000,,2013-07-25 20:02:00,
2013-07-25 16:12:00,90.0,71.0,30.02,ENE,75,0.0,1.0,53,0.00,,,0.00,972.000000,,2013-07-25 20:12:00,
2013-07-25 16:22:00,88.0,70.0,30.02,NNW,333,0.0,5.0,56,0.00,,,0.00,141.000000,,2013-07-25 20:22:00,
2013-07-25 16:32:00,88.0,70.0,30.02,NNW,333,0.0,5.0,56,0.00,,,0.00,141.000000,,2013-07-25 20:32:00,
2013-07-25 16:43:00,88.0,70.0,30.02,NNW,333,0.0,5.0,56,0.00,,,0.00,141.000000,,2013-07-25 20:43:00,
2013-07-25 16:54:00,86.0,70.0,30.02,West,270,1.0,4.0,59,0.00,,,0.00,241.000000,,2013-07-25 20:54:00,
2013-07-25 17:03:00,86.0,70.0,30.02,West,270,1.0,4.0,59,0.00,,,0.00,241.000000,,2013-07-25 21:03:00,
2013-07-25 17:12:00,86.0,70.0,30.02,West,270,1.0,4.0,59,0.00,,,0.00,241.000000,,2013-07-25 21:12:00,
2013-07-25 17:32:00,85.0,69.0,30.02,West,266,0.0,4.0,59,0.00,,,0.00,132.000000,,2013-07-25 21:32:00,
2013-07-25 17:44:00,85.0,69.0,30.02,West,266,0.0,4.0,59,0.00,,,0.00,132.000000,,2013-07-25 21:44:00,
2013-07-25 17:52:00,85.0,69.0,30.02,WNW,282,0.0,4.0,59,0.00,,,0.00,84.000000,,2013-07-25 21:52:00,
2013-07-25 18:02:00,85.0,69.0,30.02,WNW,282,0.0,4.0,59,0.00,,,0.00,84.000000,,2013-07-25 22:02:00,
2013-07-25 18:12:00,85.0,69.0,30.02,WNW,282,0.0,4.0,59,0.00,,,0.00,84.000000,,2013-07-25 22:12:00,
2013-07-25 18:22:00,84.0,68.0,30.03,WNW,283,0.0,2.0,58,0.00,,,0.00,63.000000,,2013-07-25 22:22:00,
2013-07-25 18:32:00,84.0,68.0,30.03,WNW,283,0.0,2.0,58,0.00,,,0.00,63.000000,,2013-07-25 22:32:00,
2013-07-25 18:43:00,84.0,68.0,30.03,WNW,283,0.0,2.0,58,0.00,,,0.00,63.000000,,2013-07-25 22:43:00,
2013-07-25 18:53:00,84.0,69.0,30.03,NNW,333,0.0,2.0,61,0.00,,,0.00,53.000000,,2013-07-25 22:53:00,
2013-07-25 19:02:00,84.0,69.0,30.03,NNW,333,0.0,2.0,61,0.00,,,0.00,53.000000,,2013-07-25 23:02:00,
2013-07-25 19:12:00,84.0,69.0,30.03,NNW,333,0.0,2.0,61,0.00,,,0.00,53.000000,,2013-07-25 23:12:00,
2013-07-25 19:22:00,83.0,68.0,30.03,WSW,255,0.0,2.0,61,0.00,,,0.00,39.000000,,2013-07-25 23:22:00,
2013-07-25 19:32:00,83.0,68.0,30.03,WSW,255,0.0,2.0,61,0.00,,,0.00,39.000000,,2013-07-25 23:32:00,
2013-07-25 19:43:00,83.0,68.0,30.03,WSW,255,0.0,2.0,61,0.00,,,0.00,39.000000,,2013-07-25 23:43:00,
2013-07-25 19:52:00,82.0,70.0,30.04,WSW,255,0.0,0.0,67,0.00,,,0.00,30.000000,,2013-07-25 23:52:00,
2013-07-25 20:02:00,82.0,70.0,30.04,WSW,255,0.0,0.0,67,0.00,,,0.00,30.000000,,2013-07-26 00:02:00,
2013-07-25 20:12:00,82.0,70.0,30.04,WSW,255,0.0,0.0,67,0.00,,,0.00,30.000000,,2013-07-26 00:12:00,
2013-07-25 20:22:00,81.0,69.0,30.05,WSW,255,0.0,0.0,68,0.00,,,0.00,19.000000,,2013-07-26 00:22:00,
2013-07-25 20:33:00,81.0,69.0,30.05,WSW,255,0.0,0.0,68,0.00,,,0.00,19.000000,,2013-07-26 00:33:00,
2013-07-25 20:43:00,81.0,69.0,30.05,WSW,255,0.0,0.0,68,0.00,,,0.00,19.000000,,2013-07-26 00:43:00,
2013-07-25 20:52:00,79.0,69.0,30.05,WSW,255,0.0,1.0,72,0.00,,,0.00,0.000000,,2013-07-26 00:52:00,
2013-07-25 21:02:00,79.0,69.0,30.05,WSW,255,0.0,1.0,72,0.00,,,0.00,0.000000,,2013-07-26 01:02:00,
2013-07-25 21:12:00,79.0,69.0,30.05,WSW,255,0.0,1.0,72,0.00,,,0.00,0.000000,,2013-07-26 01:12:00,
2013-07-25 21:32:00,78.0,69.0,30.06,WSW,255,0.0,1.0,75,0.00,,,0.00,0.000000,,2013-07-26 01:32:00,
2013-07-25 21:43:00,78.0,69.0,30.06,WSW,255,0.0,1.0,75,0.00,,,0.00,0.000000,,2013-07-26 01:43:00,
2013-07-25 21:52:00,77.0,70.0,30.06,WSW,255,0.0,0.0,79,0.00,,,0.00,0.000000,,2013-07-26 01:52:00,
2013-07-25 22:02:00,77.0,70.0,30.06,WSW,255,0.0,0.0,79,0.00,,,0.00,0.000000,,2013-07-26 02:02:00,
2013-07-25 22:12:00,77.0,70.0,30.06,WSW,255,0.0,0.0,79,0.00,,,0.00,0.000000,,2013-07-26 02:12:00,
2013-07-25 22:22:00,75.0,69.0,30.07,WSW,255,0.0,0.0,82,0.00,,,0.00,0.000000,,2013-07-26 02:22:00,
2013-07-25 22:32:00,75.0,69.0,30.07,WSW,255,0.0,0.0,82,0.00,,,0.00,0.000000,,2013-07-26 02:32:00,
2013-07-25 22:43:00,75.0,69.0,30.07,WSW,255,0.0,0.0,82,0.00,,,0.00,0.000000,,2013-07-26 02:43:00,
2013-07-25 22:52:00,74.0,68.0,30.08,WSW,255,0.0,0.0,83,0.00,,,0.00,0.000000,,2013-07-26 02:52:00,
2013-07-25 23:02:00,74.0,68.0,30.08,WSW,255,0.0,0.0,83,0.00,,,0.00,0.000000,,2013-07-26 03:02:00,
2013-07-25 23:12:00,74.0,68.0,30.08,WSW,255,0.0,0.0,83,0.00,,,0.00,0.000000,,2013-07-26 03:12:00,
2013-07-25 23:32:00,73.0,68.0,30.08,WSW,255,0.0,0.0,85,0.00,,,0.00,0.000000,,2013-07-26 03:32:00,
2013-07-25 23:44:00,73.0,68.0,30.08,WSW,255,0.0,0.0,85,0.00,,,0.00,0.000000,,2013-07-26 03:44:00,
2013-07-25 23:53:00,72.0,68.0,30.08,WSW,255,0.0,0.0,87,0.00,,,0.00,0.000000,,2013-07-26 03:53:00,